sensor_id;sensor_type;location;lat;lon;timestamp;P1;durP1;ratioP1;P2;durP2;ratioP2
8086;SDS011;4086;54.412;9.980;2023-03-18T00:00:11;5.57;;;4.67;;
8086;SDS011;4086;54.412;9.980;2023-03-18T00:02:40;5.60;;;5.10;;
8086;SDS011;4086;54.412;9.980;2023-03-18T00:05:08;6.47;;;4.90;;
8086;SDS011;4086;54.412;9.980;2023-03-18T00:07:36;5.67;;;4.77;;
8086;SDS011;4086;54.412;9.980;2023-03-18T00:10:04;7.00;;;4.70;;
8086;SDS011;4086;54.412;9.980;2023-03-18T00:12:31;6.13;;;4.70;;
8086;SDS011;4086;54.412;9.980;2023-03-18T00:14:58;5.20;;;4.70;;
8086;SDS011;4086;54.412;9.980;2023-03-18T00:17:25;5.40;;;4.73;;
8086;SDS011;4086;54.412;9.980;2023-03-18T00:19:51;5.70;;;4.40;;
8086;SDS011;4086;54.412;9.980;2023-03-18T00:22:18;6.27;;;5.00;;
8086;SDS011;4086;54.412;9.980;2023-03-18T00:24:47;5.10;;;4.13;;
8086;SDS011;4086;54.412;9.980;2023-03-18T00:27:14;5.73;;;4.50;;
8086;SDS011;4086;54.412;9.980;2023-03-18T00:29:40;5.10;;;4.57;;
8086;SDS011;4086;54.412;9.980;2023-03-18T00:32:06;4.73;;;4.30;;
8086;SDS011;4086;54.412;9.980;2023-03-18T00:34:33;6.93;;;4.57;;
8086;SDS011;4086;54.412;9.980;2023-03-18T00:37:00;5.00;;;4.07;;
8086;SDS011;4086;54.412;9.980;2023-03-18T00:39:29;5.00;;;4.50;;
8086;SDS011;4086;54.412;9.980;2023-03-18T00:41:58;4.30;;;3.90;;
8086;SDS011;4086;54.412;9.980;2023-03-18T00:44:34;5.00;;;4.50;;
8086;SDS011;4086;54.412;9.980;2023-03-18T00:47:00;4.67;;;4.17;;
8086;SDS011;4086;54.412;9.980;2023-03-18T00:49:27;4.87;;;4.27;;
8086;SDS011;4086;54.412;9.980;2023-03-18T00:51:53;5.53;;;4.40;;
8086;SDS011;4086;54.412;9.980;2023-03-18T00:54:19;5.10;;;4.60;;
8086;SDS011;4086;54.412;9.980;2023-03-18T00:56:46;5.57;;;4.40;;
8086;SDS011;4086;54.412;9.980;2023-03-18T00:59:14;4.63;;;4.23;;
8086;SDS011;4086;54.412;9.980;2023-03-18T01:01:42;4.60;;;4.20;;
8086;SDS011;4086;54.412;9.980;2023-03-18T01:04:08;6.27;;;4.07;;
8086;SDS011;4086;54.412;9.980;2023-03-18T01:06:36;6.93;;;4.50;;
8086;SDS011;4086;54.412;9.980;2023-03-18T01:09:03;7.17;;;4.30;;
8086;SDS011;4086;54.412;9.980;2023-03-18T01:11:30;7.20;;;4.87;;
8086;SDS011;4086;54.412;9.980;2023-03-18T01:13:57;4.87;;;4.30;;
8086;SDS011;4086;54.412;9.980;2023-03-18T01:16:26;5.33;;;4.70;;
8086;SDS011;4086;54.412;9.980;2023-03-18T01:18:53;5.37;;;4.67;;
8086;SDS011;4086;54.412;9.980;2023-03-18T01:21:20;4.63;;;4.23;;
8086;SDS011;4086;54.412;9.980;2023-03-18T01:23:47;6.43;;;4.27;;
8086;SDS011;4086;54.412;9.980;2023-03-18T01:26:13;4.47;;;4.03;;
8086;SDS011;4086;54.412;9.980;2023-03-18T01:28:40;5.03;;;4.53;;
8086;SDS011;4086;54.412;9.980;2023-03-18T01:31:07;5.47;;;4.30;;
8086;SDS011;4086;54.412;9.980;2023-03-18T01:33:35;4.67;;;4.27;;
8086;SDS011;4086;54.412;9.980;2023-03-18T01:36:01;4.63;;;4.23;;
8086;SDS011;4086;54.412;9.980;2023-03-18T01:38:29;4.97;;;4.47;;
8086;SDS011;4086;54.412;9.980;2023-03-18T01:40:55;5.47;;;4.43;;
8086;SDS011;4086;54.412;9.980;2023-03-18T01:43:23;4.77;;;4.10;;
8086;SDS011;4086;54.412;9.980;2023-03-18T01:45:52;4.00;;;3.70;;
8086;SDS011;4086;54.412;9.980;2023-03-18T01:48:21;6.03;;;4.27;;
8086;SDS011;4086;54.412;9.980;2023-03-18T01:50:52;4.77;;;4.23;;
8086;SDS011;4086;54.412;9.980;2023-03-18T01:53:20;4.67;;;4.17;;
8086;SDS011;4086;54.412;9.980;2023-03-18T01:55:48;6.53;;;4.50;;
8086;SDS011;4086;54.412;9.980;2023-03-18T01:58:17;4.43;;;4.03;;
8086;SDS011;4086;54.412;9.980;2023-03-18T02:00:47;6.60;;;4.23;;
8086;SDS011;4086;54.412;9.980;2023-03-18T02:03:17;5.57;;;4.43;;
8086;SDS011;4086;54.412;9.980;2023-03-18T02:05:45;5.17;;;4.20;;
8086;SDS011;4086;54.412;9.980;2023-03-18T02:08:13;6.17;;;4.80;;
8086;SDS011;4086;54.412;9.980;2023-03-18T02:10:40;4.70;;;4.03;;
8086;SDS011;4086;54.412;9.980;2023-03-18T02:13:07;4.63;;;4.23;;
8086;SDS011;4086;54.412;9.980;2023-03-18T02:15:39;6.40;;;4.40;;
8086;SDS011;4086;54.412;9.980;2023-03-18T02:18:11;4.63;;;4.20;;
8086;SDS011;4086;54.412;9.980;2023-03-18T02:20:43;4.67;;;4.27;;
8086;SDS011;4086;54.412;9.980;2023-03-18T02:23:16;5.33;;;4.30;;
8086;SDS011;4086;54.412;9.980;2023-03-18T02:25:51;4.67;;;4.23;;
8086;SDS011;4086;54.412;9.980;2023-03-18T02:28:21;8.07;;;4.30;;
8086;SDS011;4086;54.412;9.980;2023-03-18T02:30:49;4.70;;;4.27;;
8086;SDS011;4086;54.412;9.980;2023-03-18T02:33:18;5.30;;;4.17;;
8086;SDS011;4086;54.412;9.980;2023-03-18T02:35:48;4.70;;;4.00;;
8086;SDS011;4086;54.412;9.980;2023-03-18T02:38:16;5.07;;;4.30;;
8086;SDS011;4086;54.412;9.980;2023-03-18T02:40:43;4.53;;;4.13;;
8086;SDS011;4086;54.412;9.980;2023-03-18T02:43:16;5.10;;;4.37;;
8086;SDS011;4086;54.412;9.980;2023-03-18T02:45:47;6.23;;;4.40;;
8086;SDS011;4086;54.412;9.980;2023-03-18T02:48:19;5.03;;;3.93;;
8086;SDS011;4086;54.412;9.980;2023-03-18T02:50:48;5.50;;;4.07;;
8086;SDS011;4086;54.412;9.980;2023-03-18T02:53:14;4.63;;;4.23;;
8086;SDS011;4086;54.412;9.980;2023-03-18T02:55:41;4.67;;;4.10;;
8086;SDS011;4086;54.412;9.980;2023-03-18T02:58:08;5.70;;;4.73;;
8086;SDS011;4086;54.412;9.980;2023-03-18T03:00:34;4.90;;;4.30;;
8086;SDS011;4086;54.412;9.980;2023-03-18T03:03:03;6.60;;;4.47;;
8086;SDS011;4086;54.412;9.980;2023-03-18T03:05:29;4.33;;;3.80;;
8086;SDS011;4086;54.412;9.980;2023-03-18T03:07:56;5.37;;;4.37;;
8086;SDS011;4086;54.412;9.980;2023-03-18T03:10:22;4.90;;;4.50;;
8086;SDS011;4086;54.412;9.980;2023-03-18T03:12:49;4.70;;;3.93;;
8086;SDS011;4086;54.412;9.980;2023-03-18T03:15:16;5.40;;;4.40;;
8086;SDS011;4086;54.412;9.980;2023-03-18T03:17:43;4.97;;;4.43;;
8086;SDS011;4086;54.412;9.980;2023-03-18T03:20:11;7.57;;;4.53;;
8086;SDS011;4086;54.412;9.980;2023-03-18T03:22:39;5.50;;;4.33;;
8086;SDS011;4086;54.412;9.980;2023-03-18T03:25:06;5.80;;;3.93;;
8086;SDS011;4086;54.412;9.980;2023-03-18T03:27:34;5.70;;;4.40;;
8086;SDS011;4086;54.412;9.980;2023-03-18T03:30:00;4.60;;;4.13;;
8086;SDS011;4086;54.412;9.980;2023-03-18T03:32:27;5.63;;;4.10;;
8086;SDS011;4086;54.412;9.980;2023-03-18T03:34:54;4.20;;;3.80;;
8086;SDS011;4086;54.412;9.980;2023-03-18T03:37:21;5.93;;;4.20;;
8086;SDS011;4086;54.412;9.980;2023-03-18T03:39:48;4.57;;;4.17;;
8086;SDS011;4086;54.412;9.980;2023-03-18T03:42:15;4.73;;;4.33;;
8086;SDS011;4086;54.412;9.980;2023-03-18T03:44:41;6.83;;;4.57;;
8086;SDS011;4086;54.412;9.980;2023-03-18T03:47:08;4.20;;;3.80;;
8086;SDS011;4086;54.412;9.980;2023-03-18T03:49:35;5.30;;;4.80;;
8086;SDS011;4086;54.412;9.980;2023-03-18T03:52:01;7.80;;;5.00;;
8086;SDS011;4086;54.412;9.980;2023-03-18T03:54:29;4.57;;;4.17;;
8086;SDS011;4086;54.412;9.980;2023-03-18T03:56:56;4.87;;;4.43;;
8086;SDS011;4086;54.412;9.980;2023-03-18T03:59:22;4.93;;;4.17;;
8086;SDS011;4086;54.412;9.980;2023-03-18T04:01:49;5.87;;;4.27;;
8086;SDS011;4086;54.412;9.980;2023-03-18T04:04:16;5.30;;;4.37;;
8086;SDS011;4086;54.412;9.980;2023-03-18T04:06:42;5.23;;;4.70;;
8086;SDS011;4086;54.412;9.980;2023-03-18T04:09:09;5.93;;;4.57;;
8086;SDS011;4086;54.412;9.980;2023-03-18T04:11:36;7.20;;;4.37;;
8086;SDS011;4086;54.412;9.980;2023-03-18T04:14:03;4.90;;;4.30;;
8086;SDS011;4086;54.412;9.980;2023-03-18T04:16:29;5.10;;;4.60;;
8086;SDS011;4086;54.412;9.980;2023-03-18T04:18:55;4.90;;;4.40;;
8086;SDS011;4086;54.412;9.980;2023-03-18T04:21:22;4.80;;;4.40;;
8086;SDS011;4086;54.412;9.980;2023-03-18T04:23:48;7.10;;;4.93;;
8086;SDS011;4086;54.412;9.980;2023-03-18T04:26:14;5.80;;;4.70;;
8086;SDS011;4086;54.412;9.980;2023-03-18T04:28:42;7.00;;;4.83;;
8086;SDS011;4086;54.412;9.980;2023-03-18T04:31:09;5.37;;;4.40;;
8086;SDS011;4086;54.412;9.980;2023-03-18T04:33:35;5.73;;;4.40;;
8086;SDS011;4086;54.412;9.980;2023-03-18T04:36:01;4.87;;;4.17;;
8086;SDS011;4086;54.412;9.980;2023-03-18T04:38:28;4.87;;;4.40;;
8086;SDS011;4086;54.412;9.980;2023-03-18T04:40:54;4.83;;;4.23;;
8086;SDS011;4086;54.412;9.980;2023-03-18T04:43:21;5.17;;;4.03;;
8086;SDS011;4086;54.412;9.980;2023-03-18T04:45:48;7.17;;;4.60;;
8086;SDS011;4086;54.412;9.980;2023-03-18T04:48:15;5.00;;;4.50;;
8086;SDS011;4086;54.412;9.980;2023-03-18T04:50:42;6.03;;;4.33;;
8086;SDS011;4086;54.412;9.980;2023-03-18T04:53:08;5.73;;;4.33;;
8086;SDS011;4086;54.412;9.980;2023-03-18T04:55:35;4.47;;;4.07;;
8086;SDS011;4086;54.412;9.980;2023-03-18T04:58:01;4.80;;;4.20;;
8086;SDS011;4086;54.412;9.980;2023-03-18T05:00:28;4.73;;;4.23;;
8086;SDS011;4086;54.412;9.980;2023-03-18T05:02:56;5.00;;;4.17;;
8086;SDS011;4086;54.412;9.980;2023-03-18T05:05:22;5.70;;;4.27;;
8086;SDS011;4086;54.412;9.980;2023-03-18T05:07:49;6.07;;;4.30;;
8086;SDS011;4086;54.412;9.980;2023-03-18T05:10:16;6.03;;;4.67;;
8086;SDS011;4086;54.412;9.980;2023-03-18T05:12:42;5.43;;;4.40;;
8086;SDS011;4086;54.412;9.980;2023-03-18T05:15:10;6.03;;;4.60;;
8086;SDS011;4086;54.412;9.980;2023-03-18T05:17:37;8.77;;;5.20;;
8086;SDS011;4086;54.412;9.980;2023-03-18T05:20:06;4.90;;;4.00;;
8086;SDS011;4086;54.412;9.980;2023-03-18T05:22:34;6.20;;;4.87;;
8086;SDS011;4086;54.412;9.980;2023-03-18T05:25:00;5.00;;;4.50;;
8086;SDS011;4086;54.412;9.980;2023-03-18T05:27:27;4.93;;;4.43;;
8086;SDS011;4086;54.412;9.980;2023-03-18T05:29:54;4.77;;;4.33;;
8086;SDS011;4086;54.412;9.980;2023-03-18T05:32:20;6.53;;;4.30;;
8086;SDS011;4086;54.412;9.980;2023-03-18T05:34:47;5.07;;;4.57;;
8086;SDS011;4086;54.412;9.980;2023-03-18T05:37:15;7.53;;;5.03;;
8086;SDS011;4086;54.412;9.980;2023-03-18T05:39:41;7.73;;;4.83;;
8086;SDS011;4086;54.412;9.980;2023-03-18T05:42:08;5.27;;;4.70;;
8086;SDS011;4086;54.412;9.980;2023-03-18T05:44:34;6.70;;;4.67;;
8086;SDS011;4086;54.412;9.980;2023-03-18T05:47:01;5.70;;;4.80;;
8086;SDS011;4086;54.412;9.980;2023-03-18T05:49:27;6.27;;;5.07;;
8086;SDS011;4086;54.412;9.980;2023-03-18T05:51:53;7.00;;;5.70;;
8086;SDS011;4086;54.412;9.980;2023-03-18T05:54:21;8.67;;;6.03;;
8086;SDS011;4086;54.412;9.980;2023-03-18T05:56:49;6.47;;;5.03;;
8086;SDS011;4086;54.412;9.980;2023-03-18T05:59:16;6.33;;;5.10;;
8086;SDS011;4086;54.412;9.980;2023-03-18T06:01:43;6.03;;;4.83;;
8086;SDS011;4086;54.412;9.980;2023-03-18T06:04:09;6.67;;;4.83;;
8086;SDS011;4086;54.412;9.980;2023-03-18T06:06:36;6.27;;;5.00;;
8086;SDS011;4086;54.412;9.980;2023-03-18T06:09:05;6.30;;;5.47;;
8086;SDS011;4086;54.412;9.980;2023-03-18T06:11:33;5.57;;;4.97;;
8086;SDS011;4086;54.412;9.980;2023-03-18T06:13:59;6.23;;;4.90;;
8086;SDS011;4086;54.412;9.980;2023-03-18T06:16:38;6.87;;;5.33;;
8086;SDS011;4086;54.412;9.980;2023-03-18T06:19:05;6.10;;;5.07;;
8086;SDS011;4086;54.412;9.980;2023-03-18T06:21:32;7.37;;;5.37;;
8086;SDS011;4086;54.412;9.980;2023-03-18T06:23:59;6.70;;;5.20;;
8086;SDS011;4086;54.412;9.980;2023-03-18T06:26:26;5.73;;;5.20;;
8086;SDS011;4086;54.412;9.980;2023-03-18T06:28:54;7.87;;;5.10;;
8086;SDS011;4086;54.412;9.980;2023-03-18T06:31:22;10.53;;;6.43;;
8086;SDS011;4086;54.412;9.980;2023-03-18T06:33:48;6.20;;;5.57;;
8086;SDS011;4086;54.412;9.980;2023-03-18T06:36:16;6.83;;;5.33;;
8086;SDS011;4086;54.412;9.980;2023-03-18T06:38:43;6.67;;;5.97;;
8086;SDS011;4086;54.412;9.980;2023-03-18T06:41:12;6.43;;;5.70;;
8086;SDS011;4086;54.412;9.980;2023-03-18T06:43:38;7.07;;;5.87;;
8086;SDS011;4086;54.412;9.980;2023-03-18T06:46:06;5.93;;;5.33;;
8086;SDS011;4086;54.412;9.980;2023-03-18T06:48:33;6.63;;;5.57;;
8086;SDS011;4086;54.412;9.980;2023-03-18T06:51:00;6.90;;;6.07;;
8086;SDS011;4086;54.412;9.980;2023-03-18T06:53:27;6.60;;;5.90;;
8086;SDS011;4086;54.412;9.980;2023-03-18T06:55:54;6.07;;;5.47;;
8086;SDS011;4086;54.412;9.980;2023-03-18T06:58:20;7.07;;;6.37;;
8086;SDS011;4086;54.412;9.980;2023-03-18T07:00:47;9.80;;;6.27;;
8086;SDS011;4086;54.412;9.980;2023-03-18T07:03:14;6.60;;;6.00;;
8086;SDS011;4086;54.412;9.980;2023-03-18T07:05:41;8.77;;;5.77;;
8086;SDS011;4086;54.412;9.980;2023-03-18T07:08:08;7.17;;;6.00;;
8086;SDS011;4086;54.412;9.980;2023-03-18T07:10:34;6.97;;;5.70;;
8086;SDS011;4086;54.412;9.980;2023-03-18T07:13:00;6.93;;;6.03;;
8086;SDS011;4086;54.412;9.980;2023-03-18T07:15:27;7.97;;;6.00;;
8086;SDS011;4086;54.412;9.980;2023-03-18T07:17:54;7.10;;;6.43;;
8086;SDS011;4086;54.412;9.980;2023-03-18T07:20:22;7.00;;;5.77;;
8086;SDS011;4086;54.412;9.980;2023-03-18T07:22:48;6.73;;;6.03;;
8086;SDS011;4086;54.412;9.980;2023-03-18T07:25:15;7.03;;;6.03;;
8086;SDS011;4086;54.412;9.980;2023-03-18T07:27:41;8.00;;;5.90;;
8086;SDS011;4086;54.412;9.980;2023-03-18T07:30:10;7.07;;;5.77;;
8086;SDS011;4086;54.412;9.980;2023-03-18T07:32:37;7.63;;;6.00;;
8086;SDS011;4086;54.412;9.980;2023-03-18T07:35:04;6.30;;;5.70;;
8086;SDS011;4086;54.412;9.980;2023-03-18T07:37:33;9.60;;;5.90;;
8086;SDS011;4086;54.412;9.980;2023-03-18T07:39:59;7.17;;;5.63;;
8086;SDS011;4086;54.412;9.980;2023-03-18T07:42:26;6.47;;;5.57;;
8086;SDS011;4086;54.412;9.980;2023-03-18T07:44:52;8.60;;;6.50;;
8086;SDS011;4086;54.412;9.980;2023-03-18T07:47:19;7.33;;;5.90;;
8086;SDS011;4086;54.412;9.980;2023-03-18T07:49:47;10.00;;;6.00;;
8086;SDS011;4086;54.412;9.980;2023-03-18T07:52:13;8.07;;;5.87;;
8086;SDS011;4086;54.412;9.980;2023-03-18T07:54:41;8.80;;;6.23;;
8086;SDS011;4086;54.412;9.980;2023-03-18T07:57:08;6.57;;;5.93;;
8086;SDS011;4086;54.412;9.980;2023-03-18T07:59:35;10.30;;;6.60;;
8086;SDS011;4086;54.412;9.980;2023-03-18T08:02:01;6.50;;;5.90;;
8086;SDS011;4086;54.412;9.980;2023-03-18T08:04:28;6.73;;;5.77;;
8086;SDS011;4086;54.412;9.980;2023-03-18T08:06:55;10.83;;;6.63;;
8086;SDS011;4086;54.412;9.980;2023-03-18T08:09:22;8.17;;;6.90;;
8086;SDS011;4086;54.412;9.980;2023-03-18T08:11:49;7.43;;;6.33;;
8086;SDS011;4086;54.412;9.980;2023-03-18T08:14:16;8.07;;;6.80;;
8086;SDS011;4086;54.412;9.980;2023-03-18T08:16:42;7.10;;;6.37;;
8086;SDS011;4086;54.412;9.980;2023-03-18T08:19:08;7.37;;;6.67;;
8086;SDS011;4086;54.412;9.980;2023-03-18T08:21:35;9.87;;;7.00;;
8086;SDS011;4086;54.412;9.980;2023-03-18T08:24:02;7.97;;;7.13;;
8086;SDS011;4086;54.412;9.980;2023-03-18T08:26:29;9.90;;;7.57;;
8086;SDS011;4086;54.412;9.980;2023-03-18T08:28:57;7.87;;;7.07;;
8086;SDS011;4086;54.412;9.980;2023-03-18T08:31:24;9.43;;;7.27;;
8086;SDS011;4086;54.412;9.980;2023-03-18T08:33:50;11.73;;;7.90;;
8086;SDS011;4086;54.412;9.980;2023-03-18T08:36:18;9.60;;;7.67;;
8086;SDS011;4086;54.412;9.980;2023-03-18T08:38:44;10.93;;;7.27;;
8086;SDS011;4086;54.412;9.980;2023-03-18T08:41:10;11.03;;;8.63;;
8086;SDS011;4086;54.412;9.980;2023-03-18T08:43:37;10.27;;;8.20;;
8086;SDS011;4086;54.412;9.980;2023-03-18T08:46:05;9.50;;;8.00;;
8086;SDS011;4086;54.412;9.980;2023-03-18T08:48:31;12.40;;;8.60;;
8086;SDS011;4086;54.412;9.980;2023-03-18T08:50:59;9.50;;;8.50;;
8086;SDS011;4086;54.412;9.980;2023-03-18T08:53:27;11.43;;;8.03;;
8086;SDS011;4086;54.412;9.980;2023-03-18T08:55:54;8.70;;;7.80;;
8086;SDS011;4086;54.412;9.980;2023-03-18T08:58:20;11.53;;;7.73;;
8086;SDS011;4086;54.412;9.980;2023-03-18T09:00:46;10.67;;;8.20;;
8086;SDS011;4086;54.412;9.980;2023-03-18T09:03:15;9.37;;;8.30;;
8086;SDS011;4086;54.412;9.980;2023-03-18T09:05:42;9.63;;;8.53;;
8086;SDS011;4086;54.412;9.980;2023-03-18T09:08:08;10.73;;;8.93;;
8086;SDS011;4086;54.412;9.980;2023-03-18T09:10:34;10.00;;;8.90;;
8086;SDS011;4086;54.412;9.980;2023-03-18T09:13:01;12.13;;;9.17;;
8086;SDS011;4086;54.412;9.980;2023-03-18T09:15:27;15.40;;;10.07;;
8086;SDS011;4086;54.412;9.980;2023-03-18T09:17:53;12.90;;;10.50;;
8086;SDS011;4086;54.412;9.980;2023-03-18T09:20:21;15.17;;;11.30;;
8086;SDS011;4086;54.412;9.980;2023-03-18T09:22:48;14.17;;;10.63;;
8086;SDS011;4086;54.412;9.980;2023-03-18T09:25:16;12.57;;;11.27;;
8086;SDS011;4086;54.412;9.980;2023-03-18T09:27:42;13.23;;;11.83;;
8086;SDS011;4086;54.412;9.980;2023-03-18T09:30:10;14.50;;;11.77;;
8086;SDS011;4086;54.412;9.980;2023-03-18T09:32:38;13.87;;;11.60;;
8086;SDS011;4086;54.412;9.980;2023-03-18T09:35:04;14.87;;;12.50;;
8086;SDS011;4086;54.412;9.980;2023-03-18T09:37:34;13.43;;;12.03;;
8086;SDS011;4086;54.412;9.980;2023-03-18T09:40:01;16.47;;;13.57;;
8086;SDS011;4086;54.412;9.980;2023-03-18T09:42:36;16.07;;;13.33;;
8086;SDS011;4086;54.412;9.980;2023-03-18T09:45:09;16.17;;;13.43;;
8086;SDS011;4086;54.412;9.980;2023-03-18T09:47:54;19.73;;;16.00;;
8086;SDS011;4086;54.412;9.980;2023-03-18T09:50:31;18.63;;;16.23;;
8086;SDS011;4086;54.412;9.980;2023-03-18T09:53:09;21.07;;;17.27;;
8086;SDS011;4086;54.412;9.980;2023-03-18T09:55:40;21.63;;;18.43;;
8086;SDS011;4086;54.412;9.980;2023-03-18T09:58:13;21.57;;;18.50;;
8086;SDS011;4086;54.412;9.980;2023-03-18T10:00:44;23.40;;;18.47;;
8086;SDS011;4086;54.412;9.980;2023-03-18T10:03:11;25.17;;;18.80;;
8086;SDS011;4086;54.412;9.980;2023-03-18T10:05:42;23.47;;;18.33;;
8086;SDS011;4086;54.412;9.980;2023-03-18T10:08:14;24.80;;;19.87;;
8086;SDS011;4086;54.412;9.980;2023-03-18T10:10:44;23.77;;;20.53;;
8086;SDS011;4086;54.412;9.980;2023-03-18T10:13:13;26.23;;;21.37;;
8086;SDS011;4086;54.412;9.980;2023-03-18T10:15:43;23.73;;;20.90;;
8086;SDS011;4086;54.412;9.980;2023-03-18T10:18:13;26.83;;;22.43;;
8086;SDS011;4086;54.412;9.980;2023-03-18T10:20:48;29.73;;;22.97;;
8086;SDS011;4086;54.412;9.980;2023-03-18T10:23:21;28.33;;;22.80;;
8086;SDS011;4086;54.412;9.980;2023-03-18T10:25:54;28.67;;;23.30;;
8086;SDS011;4086;54.412;9.980;2023-03-18T10:28:29;30.20;;;22.97;;
8086;SDS011;4086;54.412;9.980;2023-03-18T10:31:03;31.47;;;24.50;;
8086;SDS011;4086;54.412;9.980;2023-03-18T10:33:44;32.73;;;24.80;;
8086;SDS011;4086;54.412;9.980;2023-03-18T10:36:14;30.97;;;25.33;;
8086;SDS011;4086;54.412;9.980;2023-03-18T10:38:48;33.43;;;25.53;;
8086;SDS011;4086;54.412;9.980;2023-03-18T10:41:17;34.97;;;26.90;;
8086;SDS011;4086;54.412;9.980;2023-03-18T10:43:46;33.90;;;26.63;;
8086;SDS011;4086;54.412;9.980;2023-03-18T10:46:15;36.17;;;27.60;;
8086;SDS011;4086;54.412;9.980;2023-03-18T10:48:44;31.63;;;26.50;;
8086;SDS011;4086;54.412;9.980;2023-03-18T10:51:15;31.30;;;26.10;;
8086;SDS011;4086;54.412;9.980;2023-03-18T10:53:43;32.60;;;27.20;;
8086;SDS011;4086;54.412;9.980;2023-03-18T10:56:15;37.57;;;29.10;;
8086;SDS011;4086;54.412;9.980;2023-03-18T10:58:41;39.27;;;30.50;;
8086;SDS011;4086;54.412;9.980;2023-03-18T11:01:08;36.83;;;29.80;;
8086;SDS011;4086;54.412;9.980;2023-03-18T11:03:40;38.83;;;29.50;;
8086;SDS011;4086;54.412;9.980;2023-03-18T11:06:10;37.47;;;28.97;;
8086;SDS011;4086;54.412;9.980;2023-03-18T11:08:41;40.87;;;30.43;;
8086;SDS011;4086;54.412;9.980;2023-03-18T11:11:19;35.90;;;30.13;;
8086;SDS011;4086;54.412;9.980;2023-03-18T11:13:50;38.40;;;30.53;;
8086;SDS011;4086;54.412;9.980;2023-03-18T11:16:28;38.97;;;29.97;;
8086;SDS011;4086;54.412;9.980;2023-03-18T11:18:57;38.53;;;30.03;;
8086;SDS011;4086;54.412;9.980;2023-03-18T11:21:24;37.20;;;30.50;;
8086;SDS011;4086;54.412;9.980;2023-03-18T11:23:54;36.77;;;29.47;;
8086;SDS011;4086;54.412;9.980;2023-03-18T11:26:43;35.53;;;29.00;;
8086;SDS011;4086;54.412;9.980;2023-03-18T11:29:12;34.33;;;26.10;;
8086;SDS011;4086;54.412;9.980;2023-03-18T11:31:52;34.10;;;27.70;;
8086;SDS011;4086;54.412;9.980;2023-03-18T11:34:22;32.50;;;25.80;;
8086;SDS011;4086;54.412;9.980;2023-03-18T11:36:53;30.40;;;26.43;;
8086;SDS011;4086;54.412;9.980;2023-03-18T11:39:22;30.67;;;25.97;;
8086;SDS011;4086;54.412;9.980;2023-03-18T11:41:52;30.70;;;25.37;;
8086;SDS011;4086;54.412;9.980;2023-03-18T11:44:22;31.40;;;25.47;;
8086;SDS011;4086;54.412;9.980;2023-03-18T11:46:52;30.73;;;25.70;;
8086;SDS011;4086;54.412;9.980;2023-03-18T11:49:21;32.83;;;27.07;;
8086;SDS011;4086;54.412;9.980;2023-03-18T11:51:50;33.50;;;26.13;;
8086;SDS011;4086;54.412;9.980;2023-03-18T11:54:27;32.60;;;28.37;;
8086;SDS011;4086;54.412;9.980;2023-03-18T11:57:07;38.43;;;30.00;;
8086;SDS011;4086;54.412;9.980;2023-03-18T11:59:43;39.50;;;31.00;;
8086;SDS011;4086;54.412;9.980;2023-03-18T12:02:34;40.80;;;32.13;;
8086;SDS011;4086;54.412;9.980;2023-03-18T12:08:17;38.87;;;31.17;;
8086;SDS011;4086;54.412;9.980;2023-03-18T12:10:52;43.03;;;34.27;;
8086;SDS011;4086;54.412;9.980;2023-03-18T12:13:28;41.53;;;33.60;;
8086;SDS011;4086;54.412;9.980;2023-03-18T12:16:01;41.87;;;33.43;;
8086;SDS011;4086;54.412;9.980;2023-03-18T12:18:33;41.67;;;32.97;;
8086;SDS011;4086;54.412;9.980;2023-03-18T12:21:09;46.97;;;35.53;;
8086;SDS011;4086;54.412;9.980;2023-03-18T12:23:54;43.80;;;35.77;;
8086;SDS011;4086;54.412;9.980;2023-03-18T12:26:28;46.57;;;34.53;;
8086;SDS011;4086;54.412;9.980;2023-03-18T12:29:10;45.10;;;34.17;;
8086;SDS011;4086;54.412;9.980;2023-03-18T12:31:51;48.17;;;34.83;;
8086;SDS011;4086;54.412;9.980;2023-03-18T12:34:27;49.63;;;36.87;;
8086;SDS011;4086;54.412;9.980;2023-03-18T12:37:15;53.00;;;38.33;;
8086;SDS011;4086;54.412;9.980;2023-03-18T12:39:51;49.10;;;36.10;;
8086;SDS011;4086;54.412;9.980;2023-03-18T12:42:29;53.30;;;38.00;;
8086;SDS011;4086;54.412;9.980;2023-03-18T12:45:07;50.07;;;36.57;;
8086;SDS011;4086;54.412;9.980;2023-03-18T12:47:35;55.33;;;40.37;;
8086;SDS011;4086;54.412;9.980;2023-03-18T12:50:05;56.77;;;40.10;;
8086;SDS011;4086;54.412;9.980;2023-03-18T12:52:38;56.27;;;41.50;;
8086;SDS011;4086;54.412;9.980;2023-03-18T12:55:09;53.80;;;39.17;;
8086;SDS011;4086;54.412;9.980;2023-03-18T12:57:39;53.50;;;40.07;;
8086;SDS011;4086;54.412;9.980;2023-03-18T13:00:15;60.80;;;40.70;;
8086;SDS011;4086;54.412;9.980;2023-03-18T13:02:46;55.03;;;40.90;;
8086;SDS011;4086;54.412;9.980;2023-03-18T13:05:20;57.07;;;40.10;;
8086;SDS011;4086;54.412;9.980;2023-03-18T13:07:51;53.13;;;38.17;;
8086;SDS011;4086;54.412;9.980;2023-03-18T13:10:29;49.97;;;36.97;;
8086;SDS011;4086;54.412;9.980;2023-03-18T13:12:56;49.37;;;37.00;;
8086;SDS011;4086;54.412;9.980;2023-03-18T13:15:26;51.97;;;35.20;;
8086;SDS011;4086;54.412;9.980;2023-03-18T13:17:56;52.03;;;37.00;;
8086;SDS011;4086;54.412;9.980;2023-03-18T13:20:24;50.10;;;35.73;;
8086;SDS011;4086;54.412;9.980;2023-03-18T13:23:02;47.33;;;34.63;;
8086;SDS011;4086;54.412;9.980;2023-03-18T13:25:36;46.17;;;33.83;;
8086;SDS011;4086;54.412;9.980;2023-03-18T13:28:10;42.60;;;32.93;;
8086;SDS011;4086;54.412;9.980;2023-03-18T13:30:55;45.47;;;32.70;;
8086;SDS011;4086;54.412;9.980;2023-03-18T13:33:40;44.60;;;32.13;;
8086;SDS011;4086;54.412;9.980;2023-03-18T13:39:27;41.63;;;29.53;;
8086;SDS011;4086;54.412;9.980;2023-03-18T13:44:53;39.80;;;28.10;;
8086;SDS011;4086;54.412;9.980;2023-03-18T13:47:27;40.37;;;28.50;;
8086;SDS011;4086;54.412;9.980;2023-03-18T13:49:58;39.47;;;28.47;;
8086;SDS011;4086;54.412;9.980;2023-03-18T13:52:30;38.70;;;28.53;;
8086;SDS011;4086;54.412;9.980;2023-03-18T13:55:00;41.50;;;29.20;;
8086;SDS011;4086;54.412;9.980;2023-03-18T13:57:31;44.13;;;30.30;;
8086;SDS011;4086;54.412;9.980;2023-03-18T14:03:15;39.97;;;29.13;;
8086;SDS011;4086;54.412;9.980;2023-03-18T14:05:45;41.83;;;29.63;;
8086;SDS011;4086;54.412;9.980;2023-03-18T14:17:33;40.70;;;30.37;;
8086;SDS011;4086;54.412;9.980;2023-03-18T14:20:21;43.20;;;32.10;;
8086;SDS011;4086;54.412;9.980;2023-03-18T14:22:50;45.57;;;32.43;;
8086;SDS011;4086;54.412;9.980;2023-03-18T14:25:19;45.70;;;33.10;;
8086;SDS011;4086;54.412;9.980;2023-03-18T14:27:49;45.40;;;33.57;;
8086;SDS011;4086;54.412;9.980;2023-03-18T14:30:26;42.63;;;32.20;;
8086;SDS011;4086;54.412;9.980;2023-03-18T14:33:10;44.40;;;34.23;;
8086;SDS011;4086;54.412;9.980;2023-03-18T14:35:57;47.40;;;34.37;;
8086;SDS011;4086;54.412;9.980;2023-03-18T14:38:25;45.30;;;33.53;;
8086;SDS011;4086;54.412;9.980;2023-03-18T14:40:53;50.43;;;35.13;;
8086;SDS011;4086;54.412;9.980;2023-03-18T14:43:22;48.73;;;34.63;;
8086;SDS011;4086;54.412;9.980;2023-03-18T14:45:51;41.87;;;31.27;;
8086;SDS011;4086;54.412;9.980;2023-03-18T14:48:22;41.87;;;31.27;;
8086;SDS011;4086;54.412;9.980;2023-03-18T14:50:53;43.27;;;33.27;;
8086;SDS011;4086;54.412;9.980;2023-03-18T14:53:23;42.90;;;30.93;;
8086;SDS011;4086;54.412;9.980;2023-03-18T14:55:52;43.13;;;31.67;;
8086;SDS011;4086;54.412;9.980;2023-03-18T14:58:21;41.37;;;30.83;;
8086;SDS011;4086;54.412;9.980;2023-03-18T15:00:49;40.93;;;31.03;;
8086;SDS011;4086;54.412;9.980;2023-03-18T15:03:18;42.33;;;31.67;;
8086;SDS011;4086;54.412;9.980;2023-03-18T15:05:46;41.53;;;30.97;;
8086;SDS011;4086;54.412;9.980;2023-03-18T15:08:14;41.00;;;30.23;;
8086;SDS011;4086;54.412;9.980;2023-03-18T15:10:45;39.27;;;29.67;;
8086;SDS011;4086;54.412;9.980;2023-03-18T15:13:13;40.70;;;29.20;;
8086;SDS011;4086;54.412;9.980;2023-03-18T15:15:41;41.60;;;30.40;;
8086;SDS011;4086;54.412;9.980;2023-03-18T15:18:14;40.70;;;30.47;;
8086;SDS011;4086;54.412;9.980;2023-03-18T15:20:43;39.63;;;30.77;;
8086;SDS011;4086;54.412;9.980;2023-03-18T15:23:10;37.37;;;29.17;;
8086;SDS011;4086;54.412;9.980;2023-03-18T15:25:38;41.37;;;30.50;;
8086;SDS011;4086;54.412;9.980;2023-03-18T15:28:09;39.67;;;28.43;;
8086;SDS011;4086;54.412;9.980;2023-03-18T15:30:41;36.70;;;29.93;;
8086;SDS011;4086;54.412;9.980;2023-03-18T15:33:16;42.27;;;31.10;;
8086;SDS011;4086;54.412;9.980;2023-03-18T15:35:52;38.13;;;29.67;;
8086;SDS011;4086;54.412;9.980;2023-03-18T15:38:19;39.37;;;29.43;;